Yorklyn, Delaware
Current Conditions -  °F | °C
As of 2:49 AM on Monday 26 Jan 2015 (Local Time) from KILG Reporting Station
Overcast Overcast  
Wind Chill: 19°   Ceiling: 1400
Heat Index: 31°   Visibility: 10mi
Dew Point: 26°   Wind: 17mph
Humidity: 82%   Direction: 50°NE
Pressure: 29.94"   Gusts: NA
Location:  39.81°N, 75.67°W
Report Text: KILG 260749Z AUTO 05015KT 10SM BKN014 OVC049 M01/M03 A2994 RMK AO2 SLP141 T10061033
Loading
Personal Weather Stations






























Interactive Weather Map New forecast layout! Learn more

10-Day Weather Forecast

Advertisements
Track Severe Weather on mobile